ไทเป, ไต้หวัน

07:26 PM CST วัน ตุลาคม 24, 2014 (GMT +0800)
ITAIPEIT2 | Change Station
CLOSE
Current Station
Personal Weather Stations
Location: Taipei Da'An, Taiwan
Elevation: 30 ft
Nearby Weather Stations

Elev 30 ft 25.03 °N, 121.53 °E | Updated 1 minute ago

Mostly Cloudy
มีเมฆคลุมเป็นส่วนใหญ่
74.5 ฟาเรนไฮน์
Feels Like 76 ฟาเรนไฮน์
N
7.0
ลม ความผันแปร ลม from ทางทิศตะวันออก
Gusts 17.0 mph

วันนี้
High -- | Low -- ฟาเรนไฮน์
--% Chance of Precip.
Yesterday
High -- | Low -- ฟาเรนไฮน์
Precip. -- นิ้ว
5:56 AM 5:19 PM
พระจันทร์ใหม่, 0% visible
ความดัน 30.04 นิ้ว
ทัศนวิสัย 6.2 ไมล์
เมฆ Few 2500 ft
มีเมฆคลุมเป็นบางส่วน 5000 ft
มีเมฆคลุมเป็นส่วนใหญ่ 8000 ft
ดัชนีความร้อน 76 ฟาเรนไฮน์
อุณหภูมิที่อากาศอาจจับตัวเป็นหยาดน้ำค้าง 66 ฟาเรนไฮน์
ความชื้น 74%
Rainfall 0.00 นิ้ว
Snow Depth Not available.
UV 0.0 out of 12
Pollen Not available.
Air Quality Not available.
Flu Activity Not available.
METAR RCSS 241100Z 11013KT 9999 FEW025 SCT050 BKN080 24/18 Q1017 NOSIG RMK A3005

More Conditions Fewer Conditions

ความดัน 30.04 นิ้ว
ทัศนวิสัย 6.2 ไมล์
เมฆ Few 2500 ft
มีเมฆคลุมเป็นบางส่วน 5000 ft
มีเมฆคลุมเป็นส่วนใหญ่ 8000 ft
ดัชนีความร้อน 76 ฟาเรนไฮน์
อุณหภูมิที่อากาศอาจจับตัวเป็นหยาดน้ำค้าง 66 ฟาเรนไฮน์
ความชื้น 74%
Rainfall 0.00 นิ้ว
Snow Depth Not available.
UV 0.0 out of 12
Pollen Not available.
Air Quality Not available.
Flu Activity Not available.
METAR RCSS 241100Z 11013KT 9999 FEW025 SCT050 BKN080 24/18 Q1017 NOSIG RMK A3005

More Conditions Fewer Conditions

10-Day Weather Forecast

Almanac

ดาราศาสตร์

Oct. 24, 2014 Rise Set
Actual Time 5:56 AM CST 5:19 PM CST
Civil Twilight 5:33 AM CST 5:42 PM CST
Nautical Twilight 5:06 AM CST 6:09 PM CST
Astronomical Twilight 4:39 AM CST 6:36 PM CST
Moon 6:00 AM CST 5:38 PM CST
Length Of Visible Light 12h 09m
ความยาวของวัน
11h 23m
Tomorrow will be 1m 21s shorter.
พระจันทร์ใหม่, 0% of the Moon is Illuminated
วันนี้
พระจันทร์ใหม่
Oct 30
ไตรมาสแรก
Nov 6
พระจันทร์เต็มดวง
Nov 14
ไตรมาสล่าสุด
Nov 22
New

Yesterday's Extremes

Country Highs Country Lows

Community

WunderPhotos

Upload Photos

1,764,525 photos uploaded!

WunderBlogs® & News

Nearby

Snow Depth

Not available.

Earthquake Activity

City Distance Mag. Time & Date
No recent earthquake activity has been reported nearby.
Minimum magnitude displayed is 2.5.

Coastal Water Temperatures

สถานที่ อุณหภูมิ
No Stations Reporting

Nearby Weather Stations